Página principal
METAR-TAF:

METAR-TAF

Aeroportos :

Ouagadougou, Burkina Faso

latitude: 12-21N, longitude: 001-31W, altura: 316 m

Observação actual do tempo

O boletim foi feito há 45 minutos, às 10:00 UTC
Vento 7 kt de oes-noroeste, variando entre oes-sudoeste e norte
Temperatura 31°C
Humidade 66%
Pressão 1013 hPa
Visibilidade 10 km ou mais
Poucas nuvensa uma altura de 2000 ft

METAR: DFFD 191000Z 29007KT 240V350 9999 FEW020 31/24 Q1013 NOSIG

Hora: 10:45 (10:45 UTC)

Previsão

O boletim foi feito há 5 horas e 45 minutos, às 05:00 UTC
Previsão válida de 19 às 06 UTC a 20 às 12 UTC
Vento 8 kt de oes-sudoeste
Visibilidade 10 km ou mais
Nuvens dispersasa uma altura de 2000 ft
Temporariamente
de 19 às 16 UTC a 19 às 24 UTC
Visibilidade: 3500 m
Nuvens fragmentadasa uma altura de 2000 ft
Poucas nuvensa uma altura de 3300 ft, Cumulonimbus.
trovoada, aguaceiros de chuva

TAF: DFFD 190500Z 1906/2012 24008KT 9999 SCT020 TEMPO 1916/1924 3500 TS SHRA BKN020 FEW033CB

Observações e previsões do tempo de mais de 4000 aeroportos (mensagens METAR e TAF).

As estações disponíveis são os pontos amarelos e vermelhos sobre o mapa.

Mova o rato sobre o mapa para ver o nome da estação.

Depois clique no ponto para visualizar as observações e previsões meteorológicas.

Para alterar o mapa : clique nos botões verdes com uma cruz preta para aumentar o zoom; no botão verde com uma pitada de zoom; ou nas setas verdes para mapas adjacentes.


METAR-TAF: